createdAt,value
2022-10-20T00:05:05.138Z,101834.47
2022-10-20T00:10:28.198Z,101824.09
2022-10-20T00:15:51.680Z,101812.78
2022-10-20T00:21:18.222Z,101812.75
2022-10-20T00:26:41.630Z,101815.38
2022-10-20T00:32:04.842Z,101808.38
2022-10-20T00:37:29.282Z,101790.19
2022-10-20T00:42:52.408Z,101785.81
2022-10-20T00:48:17.307Z,101788.44
2022-10-20T00:53:41.793Z,101768.44
2022-10-20T00:59:05.334Z,101776.28
2022-10-20T01:04:30.953Z,101771.94
2022-10-20T01:09:55.710Z,101769.34
2022-10-20T01:21:23.291Z,101777.16
2022-10-20T01:27:02.020Z,101754.56
2022-10-20T01:32:33.900Z,101750.22
2022-10-20T01:38:04.905Z,101735.44
2022-10-20T01:43:30.058Z,101705.09
2022-10-20T01:48:54.990Z,101712.06
2022-10-20T01:54:26.487Z,101687.75
2022-10-20T01:59:59.520Z,101666.91
2022-10-20T02:05:37.653Z,101652.19
2022-10-20T02:11:02.971Z,101653.94
2022-10-20T02:16:29.620Z,101645.28
2022-10-20T02:21:55.230Z,101628.75
2022-10-20T02:27:20.624Z,101633.94
2022-10-20T02:32:50.016Z,101622.69
2022-10-20T02:38:14.538Z,101615.72
2022-10-20T02:43:37.595Z,101608.78
2022-10-20T02:49:00.620Z,101613.19
2022-10-20T02:54:25.215Z,101600.13
2022-10-20T02:59:48.327Z,101581.06
2022-10-20T03:05:11.400Z,101570.63
2022-10-20T03:10:37.484Z,101559.38
2022-10-20T03:16:02.523Z,101551.53
2022-10-20T03:21:25.608Z,101542.00
2022-10-20T03:26:50.094Z,101546.38
2022-10-20T03:32:13.192Z,101548.09
2022-10-20T03:37:36.312Z,101527.28
2022-10-20T03:43:00.835Z,101513.44
2022-10-20T03:48:23.956Z,101507.31
2022-10-20T03:53:47.041Z,101509.16
2022-10-20T03:59:12.296Z,101487.44
2022-10-20T04:04:36.043Z,101494.38
2022-10-20T04:10:02.130Z,101480.47
2022-10-20T04:15:26.669Z,101467.50
2022-10-20T04:20:49.790Z,101448.38
2022-10-20T04:26:14.546Z,101418.06
2022-10-20T04:31:39.022Z,101405.00
2022-10-20T04:37:02.260Z,101433.66
2022-10-20T04:42:25.444Z,101432.81
2022-10-20T04:47:49.843Z,101425.81
2022-10-20T04:53:13.025Z,101434.47
2022-10-20T04:58:36.769Z,101469.09
2022-10-20T05:04:01.254Z,101458.56
2022-10-20T05:09:24.382Z,101433.47
2022-10-20T05:14:47.952Z,101424.69
2022-10-20T05:20:12.673Z,101391.69
2022-10-20T05:25:37.893Z,101379.50
2022-10-20T05:31:03.309Z,101369.03
2022-10-20T05:36:28.341Z,101352.50
2022-10-20T05:41:51.460Z,101367.28
2022-10-20T05:47:14.584Z,101367.31
2022-10-20T05:52:39.311Z,101363.78
2022-10-20T05:58:02.485Z,101333.34
2022-10-20T06:03:28.299Z,101307.44
2022-10-20T06:08:53.582Z,101362.81
2022-10-20T06:14:17.317Z,101363.69
2022-10-20T06:19:40.403Z,101346.22
2022-10-20T06:25:05.598Z,101342.72
2022-10-20T06:30:28.689Z,101320.06
2022-10-20T06:35:51.808Z,101326.06
2022-10-20T06:41:18.315Z,101316.66
2022-10-20T06:46:41.451Z,101334.66
2022-10-20T06:52:04.986Z,101330.25
2022-10-20T06:57:32.075Z,101318.06
2022-10-20T07:02:55.200Z,101316.22
2022-10-20T07:08:18.382Z,101319.63
2022-10-20T07:13:43.339Z,101310.72
2022-10-20T07:19:06.475Z,101322.91
2022-10-20T07:24:30.034Z,101325.38
2022-10-20T07:29:54.564Z,101302.66
2022-10-20T07:35:17.891Z,101308.66
2022-10-20T07:40:40.990Z,101295.59
2022-10-20T07:46:06.009Z,101285.88
2022-10-20T07:51:31.657Z,101256.13
2022-10-20T07:56:54.769Z,101260.34
2022-10-20T08:02:20.747Z,101268.78
2022-10-20T08:07:43.982Z,101223.66
2022-10-20T08:13:07.263Z,101260.03
2022-10-20T08:18:32.940Z,101252.09
2022-10-20T08:23:56.185Z,101237.09
2022-10-20T08:29:19.387Z,101224.94
2022-10-20T08:34:43.815Z,101214.38
2022-10-20T08:40:07.868Z,101228.53
2022-10-20T08:45:34.689Z,101238.81
2022-10-20T08:51:02.297Z,101238.16
2022-10-20T08:56:27.428Z,101225.63
2022-10-20T09:01:50.650Z,101230.31
2022-10-20T09:07:23.737Z,101205.69
2022-10-20T09:12:48.433Z,101191.91
2022-10-20T09:18:13.457Z,101181.97
2022-10-20T09:23:41.534Z,101164.97
2022-10-20T09:29:13.466Z,101164.31
2022-10-20T09:34:37.480Z,101150.34
2022-10-20T09:40:01.958Z,101178.97
2022-10-20T09:45:28.655Z,101155.00
2022-10-20T09:50:55.106Z,101154.00
2022-10-20T09:56:26.593Z,101146.16
2022-10-20T10:01:57.591Z,101145.41
2022-10-20T10:07:31.711Z,101144.44
2022-10-20T10:13:00.763Z,101125.13
2022-10-20T10:18:24.187Z,101124.59
2022-10-20T10:23:54.758Z,101125.03
2022-10-20T10:29:22.009Z,101137.47
2022-10-20T10:34:52.496Z,101135.84
2022-10-20T10:40:18.049Z,101130.59
2022-10-20T10:45:51.454Z,101104.13
2022-10-20T10:51:21.434Z,101095.78
2022-10-20T10:56:46.367Z,101102.31
2022-10-20T11:02:45.503Z,101104.06
2022-10-20T11:08:19.415Z,101082.63
2022-10-20T11:13:44.879Z,101069.63
2022-10-20T11:19:35.381Z,101056.53
2022-10-20T11:25:04.298Z,101058.88
2022-10-20T11:30:28.339Z,101033.72
2022-10-20T11:35:55.075Z,101040.19
2022-10-20T11:41:23.873Z,101054.81
2022-10-20T11:46:49.909Z,101048.66
2022-10-20T11:52:55.911Z,101049.56
2022-10-20T11:58:34.140Z,101042.47
2022-10-20T12:04:26.855Z,101046.31
2022-10-20T12:10:03.654Z,101031.06
2022-10-20T12:15:28.873Z,101042.41
2022-10-20T12:20:55.143Z,101016.13
2022-10-20T12:26:42.385Z,101010.47
2022-10-20T12:32:39.553Z,101006.09
2022-10-20T12:38:05.361Z,101023.59
2022-10-20T12:43:34.682Z,101046.28
2022-10-20T12:49:01.136Z,101039.31
2022-10-20T12:54:27.018Z,101032.38
2022-10-20T12:59:50.182Z,101001.00
2022-10-20T13:05:29.142Z,101016.47
2022-10-20T13:11:13.175Z,101015.22
2022-10-20T13:16:36.390Z,101002.78
2022-10-20T13:22:00.962Z,100994.88
2022-10-20T13:27:24.406Z,100993.41
2022-10-20T13:33:11.232Z,100987.78
2022-10-20T13:38:43.369Z,100975.81
2022-10-20T13:44:11.957Z,100969.38
2022-10-20T13:49:52.532Z,100961.19
2022-10-20T13:55:21.469Z,100963.63
2022-10-20T14:00:57.096Z,100959.44
2022-10-20T14:06:30.921Z,100968.25
2022-10-20T14:11:59.853Z,100953.09
2022-10-20T14:17:26.426Z,100960.81
2022-10-20T14:22:49.880Z,100966.28
2022-10-20T14:28:19.929Z,100965.31
2022-10-20T14:33:45.344Z,100951.16
2022-10-20T14:39:18.301Z,100953.66
2022-10-20T14:44:44.920Z,100951.25
2022-10-20T14:50:15.085Z,100947.84
2022-10-20T14:55:38.347Z,100950.06
2022-10-20T15:01:16.885Z,100963.16
2022-10-20T15:06:39.989Z,100947.56
2022-10-20T15:12:06.506Z,100937.53
2022-10-20T15:17:41.369Z,100927.22
2022-10-20T15:23:06.319Z,100942.13
2022-10-20T15:28:36.425Z,100948.94
2022-10-20T15:34:03.719Z,100932.69
2022-10-20T15:39:26.781Z,100933.16
2022-10-20T15:44:52.770Z,100924.84
2022-10-20T15:50:40.531Z,100928.28
2022-10-20T15:56:03.566Z,100922.47
2022-10-20T16:01:27.977Z,100914.41
2022-10-20T16:06:57.627Z,100905.06
2022-10-20T16:12:24.087Z,100899.19
2022-10-20T16:23:17.159Z,100907.88
2022-10-20T16:28:40.305Z,100884.56
2022-10-20T16:34:03.444Z,100891.94
2022-10-20T16:39:28.156Z,100887.38
2022-10-20T16:44:51.242Z,100899.78
2022-10-20T16:50:14.304Z,100889.81
2022-10-20T16:55:38.780Z,100891.91
2022-10-20T17:01:03.948Z,100892.88
2022-10-20T17:06:27.906Z,100889.28
2022-10-20T17:11:52.583Z,100891.09
2022-10-20T17:17:15.589Z,100880.84
2022-10-20T17:22:38.968Z,100881.03
2022-10-20T17:28:03.558Z,100896.00
2022-10-20T17:33:27.852Z,100892.38
2022-10-20T17:38:54.528Z,100881.22
2022-10-20T17:44:18.987Z,100882.78
2022-10-20T17:49:42.037Z,100875.81
2022-10-20T17:55:07.355Z,100875.03
2022-10-20T18:00:51.485Z,100869.66
2022-10-20T18:06:17.101Z,100869.72
2022-10-20T18:11:41.458Z,100866.31
2022-10-20T18:17:05.948Z,100858.63
2022-10-20T18:22:29.020Z,100853.09
2022-10-20T18:27:54.138Z,100856.06
2022-10-20T18:33:18.565Z,100842.81
2022-10-20T18:38:42.907Z,100857.13
2022-10-20T18:44:08.180Z,100857.72
2022-10-20T18:49:32.908Z,100859.09
2022-10-20T18:54:56.119Z,100859.75
2022-10-20T19:00:19.307Z,100845.88
2022-10-20T19:05:43.719Z,100850.50
2022-10-20T19:11:08.640Z,100851.28
2022-10-20T19:16:33.366Z,100845.94
2022-10-20T19:21:57.752Z,100835.25
2022-10-20T19:27:26.486Z,100841.47
2022-10-20T19:32:52.281Z,100835.13
2022-10-20T19:38:16.759Z,100841.16
2022-10-20T19:43:40.117Z,100832.88
2022-10-20T19:49:03.218Z,100825.03
2022-10-20T19:54:27.813Z,100811.66
2022-10-20T19:59:50.908Z,100808.97
2022-10-20T20:05:13.967Z,100811.38
2022-10-20T20:10:38.917Z,100792.66
2022-10-20T20:16:07.262Z,100783.78
2022-10-20T20:21:31.296Z,100775.53
2022-10-20T20:26:55.714Z,100778.44
2022-10-20T20:32:18.786Z,100766.03
2022-10-20T20:37:41.851Z,100764.59
2022-10-20T20:43:06.208Z,100769.25
2022-10-20T20:48:29.225Z,100758.16
2022-10-20T20:53:52.251Z,100764.97
2022-10-20T20:59:16.663Z,100762.44
2022-10-20T21:04:39.743Z,100780.56
2022-10-20T21:10:02.789Z,100771.88
2022-10-20T21:15:27.214Z,100776.94
2022-10-20T21:20:50.218Z,100784.34
2022-10-20T21:26:14.989Z,100778.53
2022-10-20T21:31:40.394Z,100779.94
2022-10-20T21:37:03.438Z,100799.53
2022-10-20T21:42:26.434Z,100812.06
2022-10-20T21:47:55.382Z,100785.63
2022-10-20T21:53:20.981Z,100800.03
2022-10-20T21:58:44.151Z,100771.88
2022-10-20T22:04:09.795Z,100793.34
2022-10-20T22:09:32.946Z,100797.16
2022-10-20T22:14:55.995Z,100792.91
2022-10-20T22:20:20.412Z,100770.41
2022-10-20T22:25:44.749Z,100784.66
2022-10-20T22:31:08.687Z,100782.78
2022-10-20T22:36:33.093Z,100776.63
2022-10-20T22:41:56.070Z,100769.09
2022-10-20T22:47:19.111Z,100773.25
2022-10-20T22:52:43.542Z,100773.94
2022-10-20T22:58:06.578Z,100763.84
2022-10-20T23:03:29.624Z,100764.47
2022-10-20T23:08:56.086Z,100758.97
2022-10-20T23:14:19.353Z,100756.22
2022-10-20T23:19:42.333Z,100753.28
2022-10-20T23:25:07.670Z,100761.53
2022-10-20T23:30:30.704Z,100756.50
2022-10-20T23:35:53.720Z,100744.28
2022-10-20T23:41:18.155Z,100741.50
2022-10-20T23:46:41.121Z,100729.50
2022-10-20T23:52:04.164Z,100727.97
2022-10-20T23:57:28.585Z,100735.44
